createdAt,value
2022-11-25T00:02:08.587Z,998.65
2022-11-25T00:07:08.526Z,998.64
2022-11-25T00:12:08.418Z,998.64
2022-11-25T00:17:08.388Z,998.59
2022-11-25T00:22:08.286Z,998.56
2022-11-25T00:27:08.215Z,998.56
2022-11-25T00:32:08.334Z,998.46
2022-11-25T00:37:08.089Z,998.46
2022-11-25T00:42:08.024Z,998.38
2022-11-25T00:47:07.953Z,998.33
2022-11-25T00:52:07.899Z,998.30
2022-11-25T00:57:07.820Z,998.36
2022-11-25T01:02:07.813Z,998.49
2022-11-25T01:07:07.688Z,998.47
2022-11-25T01:12:07.631Z,998.48
2022-11-25T01:17:07.563Z,998.48
2022-11-25T01:22:07.500Z,998.53
2022-11-25T01:27:07.427Z,998.52
2022-11-25T01:32:07.431Z,998.60
2022-11-25T01:37:07.295Z,998.53
2022-11-25T01:42:07.235Z,998.59
2022-11-25T01:47:07.159Z,998.60
2022-11-25T01:52:07.099Z,998.53
2022-11-25T01:57:07.031Z,998.52
2022-11-25T02:02:07.038Z,998.47
2022-11-25T02:07:06.896Z,998.43
2022-11-25T02:12:06.836Z,998.51
2022-11-25T02:17:06.764Z,998.53
2022-11-25T02:22:06.702Z,998.50
2022-11-25T02:27:06.630Z,998.48
2022-11-25T02:32:06.672Z,998.48
2022-11-25T02:37:06.495Z,998.49
2022-11-25T02:42:06.438Z,998.52
2022-11-25T02:47:06.365Z,998.47
2022-11-25T02:52:06.303Z,998.44
2022-11-25T02:57:06.239Z,998.47
2022-11-25T03:02:06.237Z,998.43
2022-11-25T03:07:06.100Z,998.40
2022-11-25T03:12:06.029Z,998.40
2022-11-25T03:17:05.972Z,998.43
2022-11-25T03:22:05.894Z,998.43
2022-11-25T03:27:05.833Z,998.50
2022-11-25T03:32:09.503Z,998.58
2022-11-25T03:37:05.789Z,998.58
2022-11-25T03:42:05.629Z,998.56
2022-11-25T03:47:05.570Z,998.46
2022-11-25T03:52:05.495Z,998.42
2022-11-25T03:57:05.438Z,998.48
2022-11-25T04:02:05.394Z,998.46
2022-11-25T04:07:05.305Z,998.44
2022-11-25T04:12:05.232Z,998.43
2022-11-25T04:17:05.275Z,998.37
2022-11-25T04:22:05.100Z,998.35
2022-11-25T04:27:05.040Z,998.38
2022-11-25T04:32:04.967Z,998.47
2022-11-25T04:37:04.910Z,998.47
2022-11-25T04:42:04.848Z,998.50
2022-11-25T04:47:04.823Z,998.50
2022-11-25T04:52:04.719Z,998.45
2022-11-25T04:57:04.662Z,998.46
2022-11-25T05:02:04.637Z,998.49
2022-11-25T05:07:04.522Z,998.46
2022-11-25T05:12:04.450Z,998.47
2022-11-25T05:17:04.450Z,998.51
2022-11-25T05:22:04.321Z,998.44
2022-11-25T05:27:04.266Z,998.48
2022-11-25T05:32:04.192Z,998.49
2022-11-25T05:37:04.135Z,998.44
2022-11-25T05:42:04.062Z,998.49
2022-11-25T05:47:04.124Z,998.49
2022-11-25T05:52:03.931Z,998.49
2022-11-25T05:57:03.874Z,998.56
2022-11-25T06:02:03.859Z,998.57
2022-11-25T06:07:03.748Z,998.60
2022-11-25T06:12:03.675Z,998.58
2022-11-25T06:17:03.630Z,998.63
2022-11-25T06:22:03.548Z,998.68
2022-11-25T06:27:03.499Z,998.74
2022-11-25T06:32:03.417Z,998.73
2022-11-25T06:37:03.369Z,998.75
2022-11-25T06:42:03.288Z,998.83
2022-11-25T06:47:03.241Z,998.82
2022-11-25T06:52:03.164Z,998.81
2022-11-25T06:57:03.103Z,998.86
2022-11-25T07:02:03.138Z,998.87
2022-11-25T07:07:02.976Z,998.93
2022-11-25T07:12:02.913Z,998.95
2022-11-25T07:17:06.164Z,998.92
2022-11-25T07:22:02.775Z,998.95
2022-11-25T07:27:02.718Z,998.91
2022-11-25T07:32:07.281Z,999.03
2022-11-25T07:37:02.595Z,999.12
2022-11-25T07:42:02.512Z,999.06
2022-11-25T07:47:02.461Z,999.01
2022-11-25T07:52:02.389Z,999.10
2022-11-25T07:57:02.328Z,999.04
2022-11-25T08:02:02.311Z,999.03
2022-11-25T08:07:02.201Z,999.05
2022-11-25T08:12:02.113Z,999.03
2022-11-25T08:17:02.063Z,998.96
2022-11-25T08:22:01.984Z,998.97
2022-11-25T08:27:01.941Z,999.03
2022-11-25T08:32:01.853Z,998.99
2022-11-25T08:37:01.803Z,999.02
2022-11-25T08:42:01.724Z,999.02
2022-11-25T08:47:01.724Z,998.96
2022-11-25T08:52:01.589Z,999.04
2022-11-25T08:57:01.564Z,998.95
2022-11-25T09:02:01.522Z,999.03
2022-11-25T09:07:01.404Z,999.02
2022-11-25T09:12:01.328Z,999.00
2022-11-25T09:17:01.270Z,999.00
2022-11-25T09:22:01.202Z,999.04
2022-11-25T09:27:01.143Z,999.15
2022-11-25T09:32:01.156Z,999.12
2022-11-25T09:37:01.024Z,999.05
2022-11-25T09:42:00.942Z,999.00
2022-11-25T09:47:00.970Z,999.03
2022-11-25T09:52:00.816Z,998.98
2022-11-25T09:57:00.769Z,999.08
2022-11-25T10:02:00.839Z,999.07
2022-11-25T10:07:00.713Z,999.22
2022-11-25T10:12:00.559Z,999.19
2022-11-25T10:17:00.499Z,999.30
2022-11-25T10:22:00.431Z,999.31
2022-11-25T10:27:00.408Z,999.21
2022-11-25T10:32:00.303Z,999.19
2022-11-25T10:37:00.244Z,999.20
2022-11-25T10:42:00.169Z,999.19
2022-11-25T10:47:15.683Z,999.14
2022-11-25T10:52:01.067Z,999.10
2022-11-25T10:56:59.979Z,999.11
2022-11-25T11:02:00.005Z,999.05
2022-11-25T11:06:59.848Z,999.05
2022-11-25T11:11:59.777Z,999.05
2022-11-25T11:16:59.719Z,999.10
2022-11-25T11:21:59.643Z,999.00
2022-11-25T11:26:59.587Z,998.93
2022-11-25T11:31:59.514Z,998.93
2022-11-25T11:36:59.453Z,998.90
2022-11-25T11:41:59.390Z,998.87
2022-11-25T11:46:59.378Z,998.86
2022-11-25T11:51:59.256Z,998.93
2022-11-25T11:56:59.190Z,998.94
2022-11-25T12:01:59.218Z,998.95
2022-11-25T12:06:59.057Z,998.95
2022-11-25T12:11:58.994Z,998.95
2022-11-25T12:16:58.925Z,998.94
2022-11-25T12:21:58.859Z,998.90
2022-11-25T12:26:58.796Z,998.96
2022-11-25T12:31:58.842Z,999.02
2022-11-25T12:36:58.659Z,999.02
2022-11-25T12:41:58.589Z,999.03
2022-11-25T12:46:58.532Z,999.00
2022-11-25T12:51:58.458Z,999.05
2022-11-25T12:56:58.400Z,999.05
2022-11-25T13:01:58.523Z,999.13
2022-11-25T13:06:58.269Z,999.12
2022-11-25T13:11:58.581Z,999.20
2022-11-25T13:16:58.676Z,999.21
2022-11-25T13:21:58.077Z,999.20
2022-11-25T13:26:58.063Z,999.26
2022-11-25T13:31:59.606Z,999.31
2022-11-25T13:36:57.887Z,999.45
2022-11-25T13:41:57.805Z,999.47
2022-11-25T13:46:57.745Z,999.59
2022-11-25T13:51:57.672Z,999.69
2022-11-25T13:56:57.615Z,999.73
2022-11-25T14:01:57.623Z,999.75
2022-11-25T14:06:57.518Z,999.78
2022-11-25T14:11:57.409Z,999.86
2022-11-25T14:16:57.441Z,999.87
2022-11-25T14:21:57.289Z,999.98
2022-11-25T14:26:57.218Z,1000.03
2022-11-25T14:31:57.287Z,1000.13
2022-11-25T14:36:57.084Z,1000.23
2022-11-25T14:41:57.021Z,1000.36
2022-11-25T14:46:56.954Z,1000.42
2022-11-25T14:51:56.890Z,1000.47
2022-11-25T14:56:56.875Z,1000.51
2022-11-25T15:01:56.828Z,1000.59
2022-11-25T15:06:56.692Z,1000.61
2022-11-25T15:11:56.617Z,1000.61
2022-11-25T15:16:56.705Z,1000.69
2022-11-25T15:22:21.938Z,1000.75
2022-11-25T15:26:57.456Z,1000.75
2022-11-25T15:31:56.441Z,1000.86
2022-11-25T15:36:56.300Z,1000.85
2022-11-25T15:41:56.237Z,1000.93
2022-11-25T15:46:56.171Z,1000.90
2022-11-25T15:51:56.105Z,1000.87
2022-11-25T15:56:56.040Z,1001.05
2022-11-25T16:01:56.039Z,1001.12
2022-11-25T16:06:55.921Z,1001.07
2022-11-25T16:11:55.849Z,1001.13
2022-11-25T16:16:55.873Z,1001.18
2022-11-25T16:21:55.708Z,1001.28
2022-11-25T16:26:55.705Z,1001.30
2022-11-25T16:31:55.621Z,1001.28
2022-11-25T16:36:55.528Z,1001.38
2022-11-25T16:41:55.448Z,1001.39
2022-11-25T16:46:55.399Z,1001.43
2022-11-25T16:51:55.317Z,1001.41
2022-11-25T16:56:55.262Z,1001.43
2022-11-25T17:01:55.289Z,1001.40
2022-11-25T17:07:30.399Z,1001.36
2022-11-25T17:11:56.085Z,1001.44
2022-11-25T17:16:55.109Z,1001.49
2022-11-25T17:21:54.928Z,1001.58
2022-11-25T17:26:54.870Z,1001.66
2022-11-25T17:31:58.418Z,1001.73
2022-11-25T17:36:54.753Z,1001.81
2022-11-25T17:41:54.668Z,1002.02
2022-11-25T17:46:54.620Z,1002.10
2022-11-25T17:51:54.540Z,1002.14
2022-11-25T17:56:54.492Z,1002.19
2022-11-25T18:01:54.467Z,1002.27
2022-11-25T18:06:54.396Z,1002.32
2022-11-25T18:11:54.281Z,1002.41
2022-11-25T18:16:54.290Z,1002.47
2022-11-25T18:21:54.147Z,1002.46
2022-11-25T18:26:54.091Z,1002.60
2022-11-25T18:31:54.021Z,1002.67
2022-11-25T18:36:53.960Z,1002.71
2022-11-25T18:41:53.922Z,1002.72
2022-11-25T18:46:53.832Z,1002.73
2022-11-25T18:51:53.760Z,1002.78
2022-11-25T18:56:53.698Z,1002.91
2022-11-25T19:01:53.677Z,1003.04
2022-11-25T19:06:53.566Z,1003.10
2022-11-25T19:11:53.505Z,1003.15
2022-11-25T19:16:53.523Z,1003.21
2022-11-25T19:21:53.373Z,1003.38
2022-11-25T19:26:53.306Z,1003.40
2022-11-25T19:31:53.269Z,1003.46
2022-11-25T19:36:53.185Z,1003.58
2022-11-25T19:41:53.104Z,1003.68
2022-11-25T19:47:14.307Z,1003.76
2022-11-25T19:51:54.002Z,1003.87
2022-11-25T19:56:52.926Z,1003.91
2022-11-25T20:01:52.898Z,1003.97
2022-11-25T20:06:52.794Z,1004.02
2022-11-25T20:11:52.710Z,1004.12
2022-11-25T20:16:52.692Z,1004.19
2022-11-25T20:21:52.581Z,1004.24
2022-11-25T20:26:52.523Z,1004.33
2022-11-25T20:31:52.480Z,1004.43
2022-11-25T20:36:52.394Z,1004.51
2022-11-25T20:41:52.322Z,1004.55
2022-11-25T20:46:52.263Z,1004.69
2022-11-25T20:51:52.189Z,1004.71
2022-11-25T20:56:52.146Z,1004.80
2022-11-25T21:01:52.128Z,1004.81
2022-11-25T21:06:52.008Z,1004.79
2022-11-25T21:11:51.929Z,1004.82
2022-11-25T21:16:51.938Z,1004.92
2022-11-25T21:21:51.795Z,1005.05
2022-11-25T21:26:51.746Z,1005.08
2022-11-25T21:31:51.729Z,1005.12
2022-11-25T21:36:51.607Z,1005.18
2022-11-25T21:41:51.544Z,1005.26
2022-11-25T21:46:51.476Z,1005.33
2022-11-25T21:51:51.412Z,1005.39
2022-11-25T21:56:51.344Z,1005.54
2022-11-25T22:01:51.285Z,1005.57
2022-11-25T22:06:51.213Z,1005.65
2022-11-25T22:11:51.150Z,1005.69
2022-11-25T22:16:51.147Z,1005.73
2022-11-25T22:21:51.011Z,1005.77
2022-11-25T22:26:56.014Z,1005.78
2022-11-25T22:31:50.962Z,1005.81
2022-11-25T22:36:50.821Z,1005.89
2022-11-25T22:41:50.747Z,1005.92
2022-11-25T22:46:50.695Z,1005.96
2022-11-25T22:51:50.616Z,1006.05
2022-11-25T22:56:50.559Z,1006.07
2022-11-25T23:01:50.533Z,1006.11
2022-11-25T23:06:50.428Z,1006.15
2022-11-25T23:11:50.365Z,1006.16
2022-11-25T23:16:50.388Z,1006.20
2022-11-25T23:21:50.235Z,1006.28
2022-11-25T23:26:50.167Z,1006.33
2022-11-25T23:31:50.179Z,1006.31
2022-11-25T23:36:50.035Z,1006.39
2022-11-25T23:41:49.964Z,1006.48
2022-11-25T23:46:49.906Z,1006.53
2022-11-25T23:51:49.834Z,1006.52
2022-11-25T23:56:49.777Z,1006.61
